sensor_id;sensor_type;location;lat;lon;timestamp;temperature;humidity
70421;SHT31;57848;51.938;15.520;2023-10-31T00:01:55;13.74;89.48
70421;SHT31;57848;51.938;15.520;2023-10-31T00:04:21;13.69;89.71
70421;SHT31;57848;51.938;15.520;2023-10-31T00:06:46;13.76;89.47
70421;SHT31;57848;51.938;15.520;2023-10-31T00:09:12;13.73;89.45
70421;SHT31;57848;51.938;15.520;2023-10-31T00:11:37;13.69;89.55
70421;SHT31;57848;51.938;15.520;2023-10-31T00:14:03;13.72;89.39
70421;SHT31;57848;51.938;15.520;2023-10-31T00:16:28;13.67;89.69
70421;SHT31;57848;51.938;15.520;2023-10-31T00:18:54;13.63;89.80
70421;SHT31;57848;51.938;15.520;2023-10-31T00:21:19;13.63;89.76
70421;SHT31;57848;51.938;15.520;2023-10-31T00:23:45;13.62;89.78
70421;SHT31;57848;51.938;15.520;2023-10-31T00:26:11;13.65;89.69
70421;SHT31;57848;51.938;15.520;2023-10-31T00:28:38;13.65;89.56
70421;SHT31;57848;51.938;15.520;2023-10-31T00:31:03;13.66;89.53
70421;SHT31;57848;51.938;15.520;2023-10-31T00:33:30;13.66;89.46
70421;SHT31;57848;51.938;15.520;2023-10-31T00:35:56;13.65;89.50
70421;SHT31;57848;51.938;15.520;2023-10-31T00:38:21;13.63;89.55
70421;SHT31;57848;51.938;15.520;2023-10-31T00:40:46;13.63;89.50
70421;SHT31;57848;51.938;15.520;2023-10-31T00:43:12;13.65;89.42
70421;SHT31;57848;51.938;15.520;2023-10-31T00:45:37;13.65;89.52
70421;SHT31;57848;51.938;15.520;2023-10-31T00:48:03;13.69;89.50
70421;SHT31;57848;51.938;15.520;2023-10-31T00:50:29;13.66;89.45
70421;SHT31;57848;51.938;15.520;2023-10-31T00:52:54;13.65;89.69
70421;SHT31;57848;51.938;15.520;2023-10-31T00:55:20;13.63;89.77
70421;SHT31;57848;51.938;15.520;2023-10-31T00:57:46;13.72;89.52
70421;SHT31;57848;51.938;15.520;2023-10-31T01:00:12;13.69;89.50
70421;SHT31;57848;51.938;15.520;2023-10-31T01:02:37;13.66;89.67
70421;SHT31;57848;51.938;15.520;2023-10-31T01:05:03;13.63;89.83
70421;SHT31;57848;51.938;15.520;2023-10-31T01:07:29;13.66;89.68
70421;SHT31;57848;51.938;15.520;2023-10-31T01:09:54;13.73;89.38
70421;SHT31;57848;51.938;15.520;2023-10-31T01:12:20;13.66;89.84
70421;SHT31;57848;51.938;15.520;2023-10-31T01:14:45;13.67;89.96
70421;SHT31;57848;51.938;15.520;2023-10-31T01:17:10;13.63;90.21
70421;SHT31;57848;51.938;15.520;2023-10-31T01:19:35;13.63;90.22
70421;SHT31;57848;51.938;15.520;2023-10-31T01:22:01;13.63;90.41
70421;SHT31;57848;51.938;15.520;2023-10-31T01:24:26;13.72;90.09
70421;SHT31;57848;51.938;15.520;2023-10-31T01:26:52;13.63;90.23
70421;SHT31;57848;51.938;15.520;2023-10-31T01:29:17;13.55;90.91
70421;SHT31;57848;51.938;15.520;2023-10-31T01:31:42;13.52;90.94
70421;SHT31;57848;51.938;15.520;2023-10-31T01:34:07;13.53;90.97
70421;SHT31;57848;51.938;15.520;2023-10-31T01:36:33;13.49;91.09
70421;SHT31;57848;51.938;15.520;2023-10-31T01:38:59;13.51;91.06
70421;SHT31;57848;51.938;15.520;2023-10-31T01:41:24;13.43;91.30
70421;SHT31;57848;51.938;15.520;2023-10-31T01:43:49;13.45;91.32
70421;SHT31;57848;51.938;15.520;2023-10-31T01:46:15;13.48;91.16
70421;SHT31;57848;51.938;15.520;2023-10-31T01:48:40;13.48;91.21
70421;SHT31;57848;51.938;15.520;2023-10-31T01:51:06;13.51;91.20
70421;SHT31;57848;51.938;15.520;2023-10-31T01:53:33;13.48;91.27
70421;SHT31;57848;51.938;15.520;2023-10-31T01:55:59;13.49;91.29
70421;SHT31;57848;51.938;15.520;2023-10-31T01:58:30;13.48;91.26
70421;SHT31;57848;51.938;15.520;2023-10-31T02:00:56;13.49;91.37
70421;SHT31;57848;51.938;15.520;2023-10-31T02:03:21;13.46;91.42
70421;SHT31;57848;51.938;15.520;2023-10-31T02:05:47;13.48;91.24
70421;SHT31;57848;51.938;15.520;2023-10-31T02:08:13;13.51;91.31
70421;SHT31;57848;51.938;15.520;2023-10-31T02:10:38;13.45;91.34
70421;SHT31;57848;51.938;15.520;2023-10-31T02:13:13;13.42;91.58
70421;SHT31;57848;51.938;15.520;2023-10-31T02:15:39;13.42;91.65
70421;SHT31;57848;51.938;15.520;2023-10-31T02:18:05;13.48;91.38
70421;SHT31;57848;51.938;15.520;2023-10-31T02:20:31;13.45;91.41
70421;SHT31;57848;51.938;15.520;2023-10-31T02:22:57;13.43;91.48
70421;SHT31;57848;51.938;15.520;2023-10-31T02:25:22;13.43;91.58
70421;SHT31;57848;51.938;15.520;2023-10-31T02:27:47;13.46;91.59
70421;SHT31;57848;51.938;15.520;2023-10-31T02:30:13;13.46;91.45
70421;SHT31;57848;51.938;15.520;2023-10-31T02:32:39;13.41;91.74
70421;SHT31;57848;51.938;15.520;2023-10-31T02:35:05;13.46;91.61
70421;SHT31;57848;51.938;15.520;2023-10-31T02:37:32;13.51;91.58
70421;SHT31;57848;51.938;15.520;2023-10-31T02:39:57;13.51;91.44
70421;SHT31;57848;51.938;15.520;2023-10-31T02:42:24;13.51;91.72
70421;SHT31;57848;51.938;15.520;2023-10-31T02:44:49;13.48;91.91
70421;SHT31;57848;51.938;15.520;2023-10-31T02:47:14;13.48;92.17
70421;SHT31;57848;51.938;15.520;2023-10-31T02:49:40;13.45;92.31
70421;SHT31;57848;51.938;15.520;2023-10-31T02:52:05;13.42;92.70
70421;SHT31;57848;51.938;15.520;2023-10-31T02:54:31;13.35;93.00
70421;SHT31;57848;51.938;15.520;2023-10-31T02:56:57;13.39;92.80
70421;SHT31;57848;51.938;15.520;2023-10-31T02:59:23;13.35;93.04
70421;SHT31;57848;51.938;15.520;2023-10-31T03:01:48;13.31;93.42
70421;SHT31;57848;51.938;15.520;2023-10-31T03:04:13;13.35;93.31
70421;SHT31;57848;51.938;15.520;2023-10-31T03:06:39;13.36;93.42
70421;SHT31;57848;51.938;15.520;2023-10-31T03:09:04;13.25;94.04
70421;SHT31;57848;51.938;15.520;2023-10-31T03:11:31;13.26;93.97
70421;SHT31;57848;51.938;15.520;2023-10-31T03:13:58;13.19;94.47
70421;SHT31;57848;51.938;15.520;2023-10-31T03:16:24;13.16;94.58
70421;SHT31;57848;51.938;15.520;2023-10-31T03:18:49;13.15;94.89
70421;SHT31;57848;51.938;15.520;2023-10-31T03:21:15;13.22;94.86
70421;SHT31;57848;51.938;15.520;2023-10-31T03:23:47;13.10;95.53
70421;SHT31;57848;51.938;15.520;2023-10-31T03:26:12;13.15;95.70
70421;SHT31;57848;51.938;15.520;2023-10-31T03:28:38;13.16;95.63
70421;SHT31;57848;51.938;15.520;2023-10-31T03:31:03;13.18;95.80
70421;SHT31;57848;51.938;15.520;2023-10-31T03:33:29;13.16;96.02
70421;SHT31;57848;51.938;15.520;2023-10-31T03:35:55;13.15;96.09
70421;SHT31;57848;51.938;15.520;2023-10-31T03:38:20;13.18;96.28
70421;SHT31;57848;51.938;15.520;2023-10-31T03:40:45;13.15;96.43
70421;SHT31;57848;51.938;15.520;2023-10-31T03:43:11;13.14;96.53
70421;SHT31;57848;51.938;15.520;2023-10-31T03:45:37;13.12;96.54
70421;SHT31;57848;51.938;15.520;2023-10-31T03:48:02;13.12;96.63
70421;SHT31;57848;51.938;15.520;2023-10-31T03:50:29;13.08;96.83
70421;SHT31;57848;51.938;15.520;2023-10-31T03:52:54;13.12;96.82
70421;SHT31;57848;51.938;15.520;2023-10-31T03:55:19;13.08;97.03
70421;SHT31;57848;51.938;15.520;2023-10-31T03:57:45;13.07;97.36
70421;SHT31;57848;51.938;15.520;2023-10-31T04:00:10;13.12;97.27
70421;SHT31;57848;51.938;15.520;2023-10-31T04:02:40;13.07;97.45
70421;SHT31;57848;51.938;15.520;2023-10-31T04:05:07;13.14;97.39
70421;SHT31;57848;51.938;15.520;2023-10-31T04:07:33;13.12;97.45
70421;SHT31;57848;51.938;15.520;2023-10-31T04:09:59;13.15;97.60
70421;SHT31;57848;51.938;15.520;2023-10-31T04:12:24;13.22;97.38
70421;SHT31;57848;51.938;15.520;2023-10-31T04:14:49;13.23;97.59
70421;SHT31;57848;51.938;15.520;2023-10-31T04:17:15;13.21;97.64
70421;SHT31;57848;51.938;15.520;2023-10-31T04:19:40;13.25;97.73
70421;SHT31;57848;51.938;15.520;2023-10-31T04:22:05;13.28;97.66
70421;SHT31;57848;51.938;15.520;2023-10-31T04:24:30;13.26;97.77
70421;SHT31;57848;51.938;15.520;2023-10-31T04:26:56;13.25;97.91
70421;SHT31;57848;51.938;15.520;2023-10-31T04:29:21;13.35;97.70
70421;SHT31;57848;51.938;15.520;2023-10-31T04:31:47;13.31;97.82
70421;SHT31;57848;51.938;15.520;2023-10-31T04:34:13;13.34;98.00
70421;SHT31;57848;51.938;15.520;2023-10-31T04:36:39;13.36;97.92
70421;SHT31;57848;51.938;15.520;2023-10-31T04:39:05;13.39;97.82
70421;SHT31;57848;51.938;15.520;2023-10-31T04:41:30;13.35;98.06
70421;SHT31;57848;51.938;15.520;2023-10-31T04:43:55;13.36;98.21
70421;SHT31;57848;51.938;15.520;2023-10-31T04:46:21;13.36;98.25
70421;SHT31;57848;51.938;15.520;2023-10-31T04:48:46;13.42;98.21
70421;SHT31;57848;51.938;15.520;2023-10-31T04:51:12;13.42;98.18
70421;SHT31;57848;51.938;15.520;2023-10-31T04:53:37;13.49;98.19
70421;SHT31;57848;51.938;15.520;2023-10-31T04:56:03;13.42;98.40
70421;SHT31;57848;51.938;15.520;2023-10-31T04:58:29;13.52;98.19
70421;SHT31;57848;51.938;15.520;2023-10-31T05:00:54;13.52;98.05
70421;SHT31;57848;51.938;15.520;2023-10-31T05:03:20;13.49;98.31
70421;SHT31;57848;51.938;15.520;2023-10-31T05:05:45;13.51;98.50
70421;SHT31;57848;51.938;15.520;2023-10-31T05:08:10;13.56;98.29
70421;SHT31;57848;51.938;15.520;2023-10-31T05:10:36;13.56;98.41
70421;SHT31;57848;51.938;15.520;2023-10-31T05:13:01;13.59;98.31
70421;SHT31;57848;51.938;15.520;2023-10-31T05:15:29;13.59;98.44
70421;SHT31;57848;51.938;15.520;2023-10-31T05:17:54;13.55;98.49
70421;SHT31;57848;51.938;15.520;2023-10-31T05:20:20;13.48;98.35
70421;SHT31;57848;51.938;15.520;2023-10-31T05:22:45;13.49;98.99
70421;SHT31;57848;51.938;15.520;2023-10-31T05:25:11;13.49;98.52
70421;SHT31;57848;51.938;15.520;2023-10-31T05:27:36;13.49;98.31
70421;SHT31;57848;51.938;15.520;2023-10-31T05:30:02;13.56;98.06
70421;SHT31;57848;51.938;15.520;2023-10-31T05:32:27;13.49;98.31
70421;SHT31;57848;51.938;15.520;2023-10-31T05:34:53;13.51;98.51
70421;SHT31;57848;51.938;15.520;2023-10-31T05:37:18;13.43;98.40
70421;SHT31;57848;51.938;15.520;2023-10-31T05:39:44;13.41;98.35
70421;SHT31;57848;51.938;15.520;2023-10-31T05:42:09;13.39;98.53
70421;SHT31;57848;51.938;15.520;2023-10-31T05:44:35;13.31;98.56
70421;SHT31;57848;51.938;15.520;2023-10-31T05:47:00;13.32;98.19
70421;SHT31;57848;51.938;15.520;2023-10-31T05:49:25;13.28;98.18
70421;SHT31;57848;51.938;15.520;2023-10-31T05:51:51;13.25;97.69
70421;SHT31;57848;51.938;15.520;2023-10-31T05:54:17;13.21;97.54
70421;SHT31;57848;51.938;15.520;2023-10-31T05:56:42;13.11;97.58
70421;SHT31;57848;51.938;15.520;2023-10-31T05:59:08;13.16;97.63
70421;SHT31;57848;51.938;15.520;2023-10-31T06:01:33;13.11;97.80
70421;SHT31;57848;51.938;15.520;2023-10-31T06:03:58;13.12;97.73
70421;SHT31;57848;51.938;15.520;2023-10-31T06:06:24;13.07;97.77
70421;SHT31;57848;51.938;15.520;2023-10-31T06:08:49;13.00;97.67
70421;SHT31;57848;51.938;15.520;2023-10-31T06:11:14;13.00;97.81
70421;SHT31;57848;51.938;15.520;2023-10-31T06:13:40;12.95;97.67
70421;SHT31;57848;51.938;15.520;2023-10-31T06:16:06;13.04;97.26
70421;SHT31;57848;51.938;15.520;2023-10-31T06:18:33;12.98;97.61
70421;SHT31;57848;51.938;15.520;2023-10-31T06:20:58;13.01;97.37
70421;SHT31;57848;51.938;15.520;2023-10-31T06:23:23;12.94;97.38
70421;SHT31;57848;51.938;15.520;2023-10-31T06:25:49;12.94;97.51
70421;SHT31;57848;51.938;15.520;2023-10-31T06:28:14;12.92;97.76
70421;SHT31;57848;51.938;15.520;2023-10-31T06:30:39;12.88;97.59
70421;SHT31;57848;51.938;15.520;2023-10-31T06:33:04;12.94;97.70
70421;SHT31;57848;51.938;15.520;2023-10-31T06:35:32;12.97;97.46
70421;SHT31;57848;51.938;15.520;2023-10-31T06:37:58;12.98;97.50
70421;SHT31;57848;51.938;15.520;2023-10-31T06:40:24;12.98;97.97
70421;SHT31;57848;51.938;15.520;2023-10-31T06:42:49;12.97;97.62
70421;SHT31;57848;51.938;15.520;2023-10-31T06:45:15;12.95;97.34
70421;SHT31;57848;51.938;15.520;2023-10-31T06:47:40;12.95;97.38
70421;SHT31;57848;51.938;15.520;2023-10-31T06:50:07;12.97;97.35
70421;SHT31;57848;51.938;15.520;2023-10-31T06:52:33;12.90;97.28
70421;SHT31;57848;51.938;15.520;2023-10-31T06:54:58;12.90;97.35
70421;SHT31;57848;51.938;15.520;2023-10-31T06:57:23;12.98;97.32
70421;SHT31;57848;51.938;15.520;2023-10-31T06:59:48;12.94;97.25
70421;SHT31;57848;51.938;15.520;2023-10-31T07:02:14;12.92;97.16
70421;SHT31;57848;51.938;15.520;2023-10-31T07:04:39;12.88;97.47
70421;SHT31;57848;51.938;15.520;2023-10-31T07:07:05;12.92;97.56
70421;SHT31;57848;51.938;15.520;2023-10-31T07:09:31;12.91;97.38
70421;SHT31;57848;51.938;15.520;2023-10-31T07:11:56;12.92;97.50
70421;SHT31;57848;51.938;15.520;2023-10-31T07:14:21;12.95;97.16
70421;SHT31;57848;51.938;15.520;2023-10-31T07:16:47;12.88;97.31
70421;SHT31;57848;51.938;15.520;2023-10-31T07:19:13;12.87;97.08
70421;SHT31;57848;51.938;15.520;2023-10-31T07:21:39;12.83;96.95
70421;SHT31;57848;51.938;15.520;2023-10-31T07:24:05;12.85;96.96
70421;SHT31;57848;51.938;15.520;2023-10-31T07:26:30;12.87;97.32
70421;SHT31;57848;51.938;15.520;2023-10-31T07:28:55;12.87;97.37
70421;SHT31;57848;51.938;15.520;2023-10-31T07:31:21;12.88;97.17
70421;SHT31;57848;51.938;15.520;2023-10-31T07:33:47;12.80;97.35
70421;SHT31;57848;51.938;15.520;2023-10-31T07:36:13;12.81;96.98
70421;SHT31;57848;51.938;15.520;2023-10-31T07:38:38;12.84;97.44
70421;SHT31;57848;51.938;15.520;2023-10-31T07:41:03;12.76;97.34
70421;SHT31;57848;51.938;15.520;2023-10-31T07:43:28;12.84;97.94
70421;SHT31;57848;51.938;15.520;2023-10-31T07:45:54;12.81;97.44
70421;SHT31;57848;51.938;15.520;2023-10-31T07:48:19;12.81;97.48
70421;SHT31;57848;51.938;15.520;2023-10-31T07:50:45;12.81;97.72
70421;SHT31;57848;51.938;15.520;2023-10-31T07:53:10;12.84;97.27
70421;SHT31;57848;51.938;15.520;2023-10-31T07:55:35;12.81;97.19
70421;SHT31;57848;51.938;15.520;2023-10-31T07:58:01;12.81;97.02
70421;SHT31;57848;51.938;15.520;2023-10-31T08:00:26;12.81;97.18
70421;SHT31;57848;51.938;15.520;2023-10-31T08:02:52;12.84;97.37
70421;SHT31;57848;51.938;15.520;2023-10-31T08:05:17;12.80;97.63
70421;SHT31;57848;51.938;15.520;2023-10-31T08:07:43;12.84;97.44
70421;SHT31;57848;51.938;15.520;2023-10-31T08:10:09;12.81;96.87
70421;SHT31;57848;51.938;15.520;2023-10-31T08:12:35;12.84;96.87
70421;SHT31;57848;51.938;15.520;2023-10-31T08:15:01;12.85;97.20
70421;SHT31;57848;51.938;15.520;2023-10-31T08:17:26;12.87;97.25
70421;SHT31;57848;51.938;15.520;2023-10-31T08:19:51;12.81;97.36
70421;SHT31;57848;51.938;15.520;2023-10-31T08:22:17;12.81;97.13
70421;SHT31;57848;51.938;15.520;2023-10-31T08:24:42;12.80;97.24
70421;SHT31;57848;51.938;15.520;2023-10-31T08:27:07;12.79;96.95
70421;SHT31;57848;51.938;15.520;2023-10-31T08:29:33;12.87;96.95
70421;SHT31;57848;51.938;15.520;2023-10-31T08:31:58;12.94;96.57
70421;SHT31;57848;51.938;15.520;2023-10-31T08:34:23;12.94;96.30
70421;SHT31;57848;51.938;15.520;2023-10-31T08:36:49;12.97;96.24
70421;SHT31;57848;51.938;15.520;2023-10-31T08:39:15;12.92;96.06
70421;SHT31;57848;51.938;15.520;2023-10-31T08:41:54;12.92;95.95
70421;SHT31;57848;51.938;15.520;2023-10-31T08:44:19;12.92;95.85
70421;SHT31;57848;51.938;15.520;2023-10-31T08:46:45;12.90;96.00
70421;SHT31;57848;51.938;15.520;2023-10-31T08:49:10;12.87;96.08
70421;SHT31;57848;51.938;15.520;2023-10-31T08:51:36;12.92;95.96
70421;SHT31;57848;51.938;15.520;2023-10-31T08:54:01;12.91;95.29
70421;SHT31;57848;51.938;15.520;2023-10-31T08:56:26;12.94;95.56
70421;SHT31;57848;51.938;15.520;2023-10-31T08:58:53;12.98;95.49
70421;SHT31;57848;51.938;15.520;2023-10-31T09:01:19;12.98;95.58
70421;SHT31;57848;51.938;15.520;2023-10-31T09:03:44;12.98;95.74
70421;SHT31;57848;51.938;15.520;2023-10-31T09:06:10;13.00;95.96
70421;SHT31;57848;51.938;15.520;2023-10-31T09:08:35;13.00;95.21
70421;SHT31;57848;51.938;15.520;2023-10-31T09:11:03;12.92;95.04
70421;SHT31;57848;51.938;15.520;2023-10-31T09:13:29;12.90;95.44
70421;SHT31;57848;51.938;15.520;2023-10-31T09:15:54;12.84;95.46
70421;SHT31;57848;51.938;15.520;2023-10-31T09:18:19;12.77;95.48
70421;SHT31;57848;51.938;15.520;2023-10-31T09:20:45;12.74;94.59
70421;SHT31;57848;51.938;15.520;2023-10-31T09:23:10;12.79;95.34
70421;SHT31;57848;51.938;15.520;2023-10-31T09:25:35;12.76;94.97
70421;SHT31;57848;51.938;15.520;2023-10-31T09:28:01;12.80;94.97
70421;SHT31;57848;51.938;15.520;2023-10-31T09:30:26;12.70;95.19
70421;SHT31;57848;51.938;15.520;2023-10-31T09:32:52;12.79;94.66
70421;SHT31;57848;51.938;15.520;2023-10-31T09:35:17;12.71;93.74
70421;SHT31;57848;51.938;15.520;2023-10-31T09:37:43;12.73;94.43
70421;SHT31;57848;51.938;15.520;2023-10-31T09:40:09;12.67;94.04
70421;SHT31;57848;51.938;15.520;2023-10-31T09:42:35;12.68;93.97
70421;SHT31;57848;51.938;15.520;2023-10-31T09:45:01;12.64;93.95
70421;SHT31;57848;51.938;15.520;2023-10-31T09:47:26;12.63;94.12
70421;SHT31;57848;51.938;15.520;2023-10-31T09:49:52;12.59;93.35
70421;SHT31;57848;51.938;15.520;2023-10-31T09:52:18;12.70;93.12
70421;SHT31;57848;51.938;15.520;2023-10-31T09:54:47;12.67;93.22
70421;SHT31;57848;51.938;15.520;2023-10-31T09:57:14;12.73;92.90
70421;SHT31;57848;51.938;15.520;2023-10-31T09:59:39;12.74;91.61
70421;SHT31;57848;51.938;15.520;2023-10-31T10:02:04;12.79;90.55
70421;SHT31;57848;51.938;15.520;2023-10-31T10:04:30;12.94;90.71
70421;SHT31;57848;51.938;15.520;2023-10-31T10:06:59;13.07;89.73
70421;SHT31;57848;51.938;15.520;2023-10-31T10:09:27;13.19;88.61
70421;SHT31;57848;51.938;15.520;2023-10-31T10:11:53;13.23;88.70
70421;SHT31;57848;51.938;15.520;2023-10-31T10:14:18;13.19;87.29
70421;SHT31;57848;51.938;15.520;2023-10-31T10:16:44;13.22;87.97
70421;SHT31;57848;51.938;15.520;2023-10-31T10:19:20;13.22;87.05
70421;SHT31;57848;51.938;15.520;2023-10-31T10:21:47;13.35;86.65
70421;SHT31;57848;51.938;15.520;2023-10-31T10:24:12;13.35;85.67
70421;SHT31;57848;51.938;15.520;2023-10-31T10:26:38;13.32;87.13
70421;SHT31;57848;51.938;15.520;2023-10-31T10:29:03;13.25;84.64
70421;SHT31;57848;51.938;15.520;2023-10-31T10:31:29;13.29;85.21
70421;SHT31;57848;51.938;15.520;2023-10-31T10:33:54;13.35;86.97
70421;SHT31;57848;51.938;15.520;2023-10-31T10:36:20;13.25;86.09
70421;SHT31;57848;51.938;15.520;2023-10-31T10:38:48;13.48;86.35
70421;SHT31;57848;51.938;15.520;2023-10-31T10:41:17;13.45;84.48
70421;SHT31;57848;51.938;15.520;2023-10-31T10:43:47;13.53;85.54
70421;SHT31;57848;51.938;15.520;2023-10-31T10:46:15;13.65;83.87
70421;SHT31;57848;51.938;15.520;2023-10-31T10:48:45;13.69;83.94
70421;SHT31;57848;51.938;15.520;2023-10-31T10:51:18;13.84;83.41
70421;SHT31;57848;51.938;15.520;2023-10-31T10:53:53;13.89;83.67
70421;SHT31;57848;51.938;15.520;2023-10-31T10:56:30;13.93;83.24
70421;SHT31;57848;51.938;15.520;2023-10-31T10:59:03;13.86;82.66
70421;SHT31;57848;51.938;15.520;2023-10-31T11:01:32;13.93;82.98
70421;SHT31;57848;51.938;15.520;2023-10-31T11:04:01;13.97;83.10
70421;SHT31;57848;51.938;15.520;2023-10-31T11:06:27;13.91;82.63
70421;SHT31;57848;51.938;15.520;2023-10-31T11:08:54;14.03;83.08
70421;SHT31;57848;51.938;15.520;2023-10-31T11:11:21;13.99;82.94
70421;SHT31;57848;51.938;15.520;2023-10-31T11:13:50;13.93;82.29
70421;SHT31;57848;51.938;15.520;2023-10-31T11:16:29;13.97;82.08
70421;SHT31;57848;51.938;15.520;2023-10-31T11:18:55;13.99;81.20
70421;SHT31;57848;51.938;15.520;2023-10-31T11:21:22;14.31;80.97
70421;SHT31;57848;51.938;15.520;2023-10-31T11:23:57;14.67;79.08
70421;SHT31;57848;51.938;15.520;2023-10-31T11:26:25;15.03;77.20
70421;SHT31;57848;51.938;15.520;2023-10-31T11:28:51;15.55;76.35
70421;SHT31;57848;51.938;15.520;2023-10-31T11:31:16;15.13;76.83
70421;SHT31;57848;51.938;15.520;2023-10-31T11:33:42;14.95;77.41
70421;SHT31;57848;51.938;15.520;2023-10-31T11:36:10;14.76;77.17
70421;SHT31;57848;51.938;15.520;2023-10-31T11:38:37;14.49;78.34
70421;SHT31;57848;51.938;15.520;2023-10-31T11:41:04;14.42;78.59
70421;SHT31;57848;51.938;15.520;2023-10-31T11:46:04;14.41;78.35
70421;SHT31;57848;51.938;15.520;2023-10-31T11:48:49;14.41;78.37
70421;SHT31;57848;51.938;15.520;2023-10-31T11:51:18;14.32;78.00
70421;SHT31;57848;51.938;15.520;2023-10-31T11:53:44;14.34;78.81
70421;SHT31;57848;51.938;15.520;2023-10-31T11:56:18;14.42;78.07
70421;SHT31;57848;51.938;15.520;2023-10-31T11:58:43;14.41;78.31
70421;SHT31;57848;51.938;15.520;2023-10-31T12:01:10;14.16;76.96
70421;SHT31;57848;51.938;15.520;2023-10-31T12:03:43;14.28;77.42
70421;SHT31;57848;51.938;15.520;2023-10-31T12:06:13;14.28;77.57
70421;SHT31;57848;51.938;15.520;2023-10-31T12:08:40;14.17;76.42
70421;SHT31;57848;51.938;15.520;2023-10-31T12:13:33;14.01;77.02
70421;SHT31;57848;51.938;15.520;2023-10-31T12:15:59;13.99;77.53
70421;SHT31;57848;51.938;15.520;2023-10-31T12:18:27;13.99;76.91
70421;SHT31;57848;51.938;15.520;2023-10-31T12:20:52;13.97;77.31
70421;SHT31;57848;51.938;15.520;2023-10-31T12:23:18;13.96;77.87
70421;SHT31;57848;51.938;15.520;2023-10-31T12:25:50;13.97;77.62
70421;SHT31;57848;51.938;15.520;2023-10-31T12:28:20;13.84;76.82
70421;SHT31;57848;51.938;15.520;2023-10-31T12:30:49;13.87;76.84
70421;SHT31;57848;51.938;15.520;2023-10-31T12:33:16;13.80;77.28
70421;SHT31;57848;51.938;15.520;2023-10-31T12:35:43;13.73;77.23
70421;SHT31;57848;51.938;15.520;2023-10-31T12:38:12;13.66;76.67
70421;SHT31;57848;51.938;15.520;2023-10-31T12:40:38;13.59;77.34
70421;SHT31;57848;51.938;15.520;2023-10-31T12:43:04;13.62;77.28
70421;SHT31;57848;51.938;15.520;2023-10-31T12:45:30;13.65;77.39
70421;SHT31;57848;51.938;15.520;2023-10-31T12:48:08;13.60;77.30
70421;SHT31;57848;51.938;15.520;2023-10-31T12:50:35;13.62;77.14
70421;SHT31;57848;51.938;15.520;2023-10-31T12:53:05;13.58;78.13
70421;SHT31;57848;51.938;15.520;2023-10-31T12:55:38;13.65;77.48
70421;SHT31;57848;51.938;15.520;2023-10-31T12:58:04;13.73;75.95
70421;SHT31;57848;51.938;15.520;2023-10-31T13:00:31;13.70;76.77
70421;SHT31;57848;51.938;15.520;2023-10-31T13:03:02;13.66;74.20
70421;SHT31;57848;51.938;15.520;2023-10-31T13:05:28;13.66;75.05
70421;SHT31;57848;51.938;15.520;2023-10-31T13:07:55;13.69;75.04
70421;SHT31;57848;51.938;15.520;2023-10-31T13:10:23;13.66;74.67
70421;SHT31;57848;51.938;15.520;2023-10-31T13:12:51;13.70;75.16
70421;SHT31;57848;51.938;15.520;2023-10-31T13:15:18;13.69;75.73
70421;SHT31;57848;51.938;15.520;2023-10-31T13:17:44;13.70;74.61
70421;SHT31;57848;51.938;15.520;2023-10-31T13:20:11;13.74;75.40
70421;SHT31;57848;51.938;15.520;2023-10-31T13:22:37;13.67;74.49
70421;SHT31;57848;51.938;15.520;2023-10-31T13:25:04;13.73;73.88
70421;SHT31;57848;51.938;15.520;2023-10-31T13:27:43;13.73;74.57
70421;SHT31;57848;51.938;15.520;2023-10-31T13:30:13;13.76;74.49
70421;SHT31;57848;51.938;15.520;2023-10-31T13:32:39;13.83;73.62
70421;SHT31;57848;51.938;15.520;2023-10-31T13:35:06;13.81;73.89
70421;SHT31;57848;51.938;15.520;2023-10-31T13:37:31;13.77;74.29
70421;SHT31;57848;51.938;15.520;2023-10-31T13:39:57;13.80;75.02
70421;SHT31;57848;51.938;15.520;2023-10-31T13:42:22;13.74;73.82
70421;SHT31;57848;51.938;15.520;2023-10-31T13:44:47;13.69;75.13
70421;SHT31;57848;51.938;15.520;2023-10-31T13:47:14;13.73;74.96
70421;SHT31;57848;51.938;15.520;2023-10-31T13:49:39;13.70;75.30
70421;SHT31;57848;51.938;15.520;2023-10-31T13:52:04;13.66;74.55
70421;SHT31;57848;51.938;15.520;2023-10-31T13:54:31;13.59;74.62
70421;SHT31;57848;51.938;15.520;2023-10-31T13:56:57;13.67;75.32
70421;SHT31;57848;51.938;15.520;2023-10-31T13:59:22;13.67;74.66
70421;SHT31;57848;51.938;15.520;2023-10-31T14:01:47;13.69;75.66
70421;SHT31;57848;51.938;15.520;2023-10-31T14:04:13;13.65;75.62
70421;SHT31;57848;51.938;15.520;2023-10-31T14:06:39;13.58;74.70
70421;SHT31;57848;51.938;15.520;2023-10-31T14:09:05;13.63;74.62
70421;SHT31;57848;51.938;15.520;2023-10-31T14:11:32;13.49;74.92
70421;SHT31;57848;51.938;15.520;2023-10-31T14:13:57;13.58;74.64
70421;SHT31;57848;51.938;15.520;2023-10-31T14:16:30;13.48;74.37
70421;SHT31;57848;51.938;15.520;2023-10-31T14:18:56;13.46;74.96
70421;SHT31;57848;51.938;15.520;2023-10-31T14:21:21;13.49;74.28
70421;SHT31;57848;51.938;15.520;2023-10-31T14:23:46;13.48;74.55
70421;SHT31;57848;51.938;15.520;2023-10-31T14:26:19;13.46;74.71
70421;SHT31;57848;51.938;15.520;2023-10-31T14:28:45;13.49;75.21
70421;SHT31;57848;51.938;15.520;2023-10-31T14:31:10;13.32;74.27
70421;SHT31;57848;51.938;15.520;2023-10-31T14:33:36;13.39;75.01
70421;SHT31;57848;51.938;15.520;2023-10-31T14:36:01;13.38;74.58
70421;SHT31;57848;51.938;15.520;2023-10-31T14:38:27;13.31;74.45
70421;SHT31;57848;51.938;15.520;2023-10-31T14:40:52;13.29;75.03
70421;SHT31;57848;51.938;15.520;2023-10-31T14:43:17;13.28;75.82
70421;SHT31;57848;51.938;15.520;2023-10-31T14:45:44;13.28;75.52
70421;SHT31;57848;51.938;15.520;2023-10-31T14:48:09;13.23;75.05
70421;SHT31;57848;51.938;15.520;2023-10-31T14:50:34;13.25;75.31
70421;SHT31;57848;51.938;15.520;2023-10-31T14:52:59;13.21;75.68
70421;SHT31;57848;51.938;15.520;2023-10-31T14:55:25;13.15;75.65
70421;SHT31;57848;51.938;15.520;2023-10-31T14:57:50;13.16;75.93
70421;SHT31;57848;51.938;15.520;2023-10-31T15:00:16;13.08;75.97
70421;SHT31;57848;51.938;15.520;2023-10-31T15:02:42;13.08;76.00
70421;SHT31;57848;51.938;15.520;2023-10-31T15:05:07;13.11;76.28
70421;SHT31;57848;51.938;15.520;2023-10-31T15:07:33;13.08;76.15
70421;SHT31;57848;51.938;15.520;2023-10-31T15:09:58;13.04;76.26
70421;SHT31;57848;51.938;15.520;2023-10-31T15:12:23;13.07;76.00
70421;SHT31;57848;51.938;15.520;2023-10-31T15:14:49;13.00;76.24